ADDS METAR Data INFO
IDs: Format: Raw Decoded Include TAF

Data at: 2114 UTC 22 Oct 2017

METAR for:TUPJ (Beef Isl/Lettsome In, --, WI)
Text:TUPJ 222100Z 09011KT 9999 SCT018 29/23 Q1015
Temperature: 29.0°C ( 84°F)
Dewpoint: 23.0°C ( 73°F) [RH = 70%]
Pressure (altimeter):29.97 inches Hg (1015.0 mb)
Winds:from the E (90 degrees) at 13 MPH (11 knots; 5.7 m/s)
Visibility:6 or more sm (10+ km)
Ceiling:at least 12,000 feet AGL
Clouds: scattered clouds at 1800 feet AGL